sensor_id;sensor_type;location;lat;lon;timestamp;pressure;altitude;pressure_sealevel;temperature;humidity
76156;BME280;64906;51.290;7.348;2023-02-02T00:52:21;99425.44;;;18.15;64.50
76156;BME280;64906;51.290;7.348;2023-02-02T02:13:11;99361.34;;;17.96;64.94
76156;BME280;64906;51.290;7.348;2023-02-02T02:53:37;99319.28;;;17.92;64.35
76156;BME280;64906;51.290;7.348;2023-02-02T02:59:42;99312.63;;;17.83;63.88
76156;BME280;64906;51.290;7.348;2023-02-02T03:12:51;99322.78;;;17.87;63.83
76156;BME280;64906;51.290;7.348;2023-02-02T03:19:00;99326.28;;;17.83;63.94
76156;BME280;64906;51.290;7.348;2023-02-02T03:31:43;99329.59;;;17.85;63.72
76156;BME280;64906;51.290;7.348;2023-02-02T03:48:11;99359.06;;;17.83;64.14
76156;BME280;64906;51.290;7.348;2023-02-02T03:54:08;99351.13;;;17.81;64.25
76156;BME280;64906;51.290;7.348;2023-02-02T04:33:46;99380.59;;;17.74;64.65
76156;BME280;64906;51.290;7.348;2023-02-02T05:02:57;99374.00;;;17.70;64.85
76156;BME280;64906;51.290;7.348;2023-02-02T05:05:22;99374.00;;;17.70;64.68
76156;BME280;64906;51.290;7.348;2023-02-02T05:11:39;99372.63;;;17.73;64.92
76156;BME280;64906;51.290;7.348;2023-02-02T05:14:14;99369.91;;;17.73;64.74
76156;BME280;64906;51.290;7.348;2023-02-02T05:20:04;99372.94;;;17.76;64.78
76156;BME280;64906;51.290;7.348;2023-02-02T05:22:29;99369.91;;;17.73;64.80
76156;BME280;64906;51.290;7.348;2023-02-02T05:35:07;99366.31;;;17.67;64.74
76156;BME280;64906;51.290;7.348;2023-02-02T05:37:33;99366.88;;;17.69;64.68
76156;BME280;64906;51.290;7.348;2023-02-02T05:43:23;99370.69;;;17.68;64.89
76156;BME280;64906;51.290;7.348;2023-02-02T05:46:07;99369.88;;;17.68;64.55
76156;BME280;64906;51.290;7.348;2023-02-02T06:01:40;99387.59;;;17.65;64.74
76156;BME280;64906;51.290;7.348;2023-02-02T06:10:31;99378.88;;;17.68;64.71
76156;BME280;64906;51.290;7.348;2023-02-02T06:23:03;99402.06;;;17.66;64.58
76156;BME280;64906;51.290;7.348;2023-02-02T06:49:16;99428.50;;;17.60;64.87
76156;BME280;64906;51.290;7.348;2023-02-02T06:51:57;99427.91;;;17.58;64.86
76156;BME280;64906;51.290;7.348;2023-02-02T07:11:13;99454.38;;;17.31;65.54
76156;BME280;64906;51.290;7.348;2023-02-02T07:17:00;99469.97;;;17.35;65.57
76156;BME280;64906;51.290;7.348;2023-02-02T07:19:26;99478.72;;;17.37;65.51
76156;BME280;64906;51.290;7.348;2023-02-02T07:35:00;99493.41;;;17.31;65.77
76156;BME280;64906;51.290;7.348;2023-02-02T07:44:16;99505.75;;;17.39;65.61
76156;BME280;64906;51.290;7.348;2023-02-02T07:56:47;99511.47;;;17.37;65.50
76156;BME280;64906;51.290;7.348;2023-02-02T08:02:41;99519.66;;;17.37;65.34
76156;BME280;64906;51.290;7.348;2023-02-02T08:11:54;99522.97;;;17.39;65.19
76156;BME280;64906;51.290;7.348;2023-02-02T08:18:09;99524.69;;;17.46;65.40
76156;BME280;64906;51.290;7.348;2023-02-02T08:20:35;99519.72;;;17.42;65.38
76156;BME280;64906;51.290;7.348;2023-02-02T08:23:16;99524.75;;;17.51;65.24
76156;BME280;64906;51.290;7.348;2023-02-02T08:25:48;99528.31;;;17.51;64.99
76156;BME280;64906;51.290;7.348;2023-02-02T08:38:38;99519.09;;;17.57;64.98
76156;BME280;64906;51.290;7.348;2023-02-02T08:44:51;99521.91;;;17.62;64.61
76156;BME280;64906;51.290;7.348;2023-02-02T08:52:57;99518.66;;;17.65;64.77
76156;BME280;64906;51.290;7.348;2023-02-02T09:28:59;99538.31;;;17.89;63.61
76156;BME280;64906;51.290;7.348;2023-02-02T09:36:20;99549.88;;;18.01;62.94
76156;BME280;64906;51.290;7.348;2023-02-02T09:58:47;99573.75;;;18.10;62.87
76156;BME280;64906;51.290;7.348;2023-02-02T10:04:35;99578.50;;;18.20;62.79
76156;BME280;64906;51.290;7.348;2023-02-02T10:07:15;99575.78;;;18.20;62.84
76156;BME280;64906;51.290;7.348;2023-02-02T10:15:01;99581.56;;;18.28;62.52
76156;BME280;64906;51.290;7.348;2023-02-02T10:22:44;99592.31;;;18.35;62.25
76156;BME280;64906;51.290;7.348;2023-02-02T10:25:12;99589.81;;;18.33;62.13
76156;BME280;64906;51.290;7.348;2023-02-02T10:27:39;99601.06;;;18.37;62.25
76156;BME280;64906;51.290;7.348;2023-02-02T10:30:17;99602.44;;;18.34;62.25
76156;BME280;64906;51.290;7.348;2023-02-02T10:32:46;99608.22;;;18.38;62.37
76156;BME280;64906;51.290;7.348;2023-02-02T10:35:41;99621.66;;;18.39;62.17
76156;BME280;64906;51.290;7.348;2023-02-02T10:38:54;99613.09;;;18.36;62.03
76156;BME280;64906;51.290;7.348;2023-02-02T10:44:23;99632.63;;;18.44;61.91
76156;BME280;64906;51.290;7.348;2023-02-02T10:46:55;99627.44;;;18.48;61.95
76156;BME280;64906;51.290;7.348;2023-02-02T10:49:38;99621.47;;;18.51;61.72
76156;BME280;64906;51.290;7.348;2023-02-02T10:57:09;99629.97;;;18.54;61.66
76156;BME280;64906;51.290;7.348;2023-02-02T11:00:05;99634.06;;;18.52;61.77
76156;BME280;64906;51.290;7.348;2023-02-02T11:02:35;99628.28;;;18.48;61.77
76156;BME280;64906;51.290;7.348;2023-02-02T11:05:01;99632.16;;;18.52;61.82
76156;BME280;64906;51.290;7.348;2023-02-02T11:07:45;99635.22;;;18.56;61.56
76156;BME280;64906;51.290;7.348;2023-02-02T11:10:11;99633.78;;;18.53;61.67
76156;BME280;64906;51.290;7.348;2023-02-02T11:12:41;99630.22;;;18.53;61.94
76156;BME280;64906;51.290;7.348;2023-02-02T11:15:29;99633.28;;;18.56;61.53
76156;BME280;64906;51.290;7.348;2023-02-02T11:17:55;99642.56;;;18.55;61.70
76156;BME280;64906;51.290;7.348;2023-02-02T11:20:36;99635.53;;;18.64;61.20
76156;BME280;64906;51.290;7.348;2023-02-02T11:23:04;99627.28;;;18.59;61.30
76156;BME280;64906;51.290;7.348;2023-02-02T11:25:38;99627.53;;;18.58;61.37
76156;BME280;64906;51.290;7.348;2023-02-02T11:28:21;99633.28;;;18.56;61.03
76156;BME280;64906;51.290;7.348;2023-02-02T11:30:50;99624.81;;;18.58;61.32
76156;BME280;64906;51.290;7.348;2023-02-02T11:33:29;99635.28;;;18.66;61.37
76156;BME280;64906;51.290;7.348;2023-02-02T11:36:28;99642.66;;;18.65;60.99
76156;BME280;64906;51.290;7.348;2023-02-02T11:39:28;99626.53;;;18.64;61.04
76156;BME280;64906;51.290;7.348;2023-02-02T11:42:20;99633.69;;;18.70;61.09
76156;BME280;64906;51.290;7.348;2023-02-02T11:44:52;99629.84;;;18.71;61.18
76156;BME280;64906;51.290;7.348;2023-02-02T11:47:24;99626.03;;;18.72;60.80
76156;BME280;64906;51.290;7.348;2023-02-02T11:49:52;99629.84;;;18.71;61.07
76156;BME280;64906;51.290;7.348;2023-02-02T11:52:25;99618.41;;;18.74;60.65
76156;BME280;64906;51.290;7.348;2023-02-02T11:54:54;99622.16;;;18.68;60.76
76156;BME280;64906;51.290;7.348;2023-02-02T11:57:24;99615.59;;;18.64;61.14
76156;BME280;64906;51.290;7.348;2023-02-02T12:00:10;99613.44;;;18.71;60.80
76156;BME280;64906;51.290;7.348;2023-02-02T12:02:46;99610.44;;;18.72;60.73
76156;BME280;64906;51.290;7.348;2023-02-02T12:05:34;99611.81;;;18.70;60.74
76156;BME280;64906;51.290;7.348;2023-02-02T12:08:01;99598.97;;;18.70;61.00
76156;BME280;64906;51.290;7.348;2023-02-02T12:10:59;99603.06;;;18.73;60.83
76156;BME280;64906;51.290;7.348;2023-02-02T12:22:29;99600.94;;;18.80;60.61
76156;BME280;64906;51.290;7.348;2023-02-02T12:25:35;99597.69;;;18.83;60.38
76156;BME280;64906;51.290;7.348;2023-02-02T12:28:27;99593.03;;;18.84;60.40
76156;BME280;64906;51.290;7.348;2023-02-02T12:31:25;99586.22;;;18.86;60.09
76156;BME280;64906;51.290;7.348;2023-02-02T12:33:53;99582.41;;;18.87;60.29
76156;BME280;64906;51.290;7.348;2023-02-02T12:36:32;99572.84;;;18.90;60.06
76156;BME280;64906;51.290;7.348;2023-02-02T12:39:16;99546.00;;;18.87;59.93
76156;BME280;64906;51.290;7.348;2023-02-02T12:42:01;99555.28;;;18.86;59.83
76156;BME280;64906;51.290;7.348;2023-02-02T12:44:56;99548.44;;;18.83;60.26
76156;BME280;64906;51.290;7.348;2023-02-02T12:47:47;99555.59;;;18.89;59.92
76156;BME280;64906;51.290;7.348;2023-02-02T12:50:34;99539.16;;;18.89;59.69
76156;BME280;64906;51.290;7.348;2023-02-02T12:53:25;99544.13;;;18.97;59.43
76156;BME280;64906;51.290;7.348;2023-02-02T12:56:19;99533.47;;;18.96;59.62
76156;BME280;64906;51.290;7.348;2023-02-02T13:02:04;99534.31;;;19.01;59.35
76156;BME280;64906;51.290;7.348;2023-02-02T13:04:58;99533.22;;;19.02;59.83
76156;BME280;64906;51.290;7.348;2023-02-02T13:07:48;99517.94;;;19.06;59.70
76156;BME280;64906;51.290;7.348;2023-02-02T13:13:01;99529.97;;;19.10;59.73
76156;BME280;64906;51.290;7.348;2023-02-02T13:15:33;99523.44;;;19.11;60.26
76156;BME280;64906;51.290;7.348;2023-02-02T13:18:05;99510.78;;;19.05;60.40
76156;BME280;64906;51.290;7.348;2023-02-02T13:21:13;99514.38;;;19.06;60.99
76156;BME280;64906;51.290;7.348;2023-02-02T13:23:36;99509.19;;;19.09;60.82
76156;BME280;64906;51.290;7.348;2023-02-02T13:26:08;99501.56;;;19.11;60.59
76156;BME280;64906;51.290;7.348;2023-02-02T13:34:12;99488.97;;;19.15;59.99
76156;BME280;64906;51.290;7.348;2023-02-02T13:36:43;99490.06;;;19.14;60.58
76156;BME280;64906;51.290;7.348;2023-02-02T13:39:19;99483.50;;;19.15;60.52
76156;BME280;64906;51.290;7.348;2023-02-02T13:41:47;99488.44;;;19.18;60.07
76156;BME280;64906;51.290;7.348;2023-02-02T13:44:23;99470.06;;;19.14;60.28
76156;BME280;64906;51.290;7.348;2023-02-02T13:47:03;99479.13;;;19.19;60.05
76156;BME280;64906;51.290;7.348;2023-02-02T13:49:41;99476.41;;;19.19;59.86
76156;BME280;64906;51.290;7.348;2023-02-02T13:55:42;99473.41;;;19.26;60.22
76156;BME280;64906;51.290;7.348;2023-02-02T14:00:48;99465.19;;;19.21;60.04
76156;BME280;64906;51.290;7.348;2023-02-02T14:03:36;99467.94;;;19.26;60.22
76156;BME280;64906;51.290;7.348;2023-02-02T14:06:20;99466.88;;;19.32;59.61
76156;BME280;64906;51.290;7.348;2023-02-02T14:09:03;99451.84;;;19.29;59.60
76156;BME280;64906;51.290;7.348;2023-02-02T14:11:36;99455.63;;;19.28;60.18
76156;BME280;64906;51.290;7.348;2023-02-02T14:14:15;99452.88;;;19.28;59.60
76156;BME280;64906;51.290;7.348;2023-02-02T14:16:59;99457.81;;;19.26;60.10
76156;BME280;64906;51.290;7.348;2023-02-02T14:24:42;99449.34;;;19.28;59.77
76156;BME280;64906;51.290;7.348;2023-02-02T14:29:35;99452.41;;;19.31;60.11
76156;BME280;64906;51.290;7.348;2023-02-02T14:34:42;99444.19;;;19.31;59.79
76156;BME280;64906;51.290;7.348;2023-02-02T14:37:27;99443.66;;;19.34;59.63
76156;BME280;64906;51.290;7.348;2023-02-02T14:51:17;99435.44;;;19.34;59.22
76156;BME280;64906;51.290;7.348;2023-02-02T14:53:49;99440.38;;;19.37;59.20
76156;BME280;64906;51.290;7.348;2023-02-02T14:56:18;99449.13;;;19.39;59.17
76156;BME280;64906;51.290;7.348;2023-02-02T14:58:57;99436.78;;;19.37;59.20
76156;BME280;64906;51.290;7.348;2023-02-02T15:01:28;99436.78;;;19.37;59.20
76156;BME280;64906;51.290;7.348;2023-02-02T15:06:47;99433.81;;;19.43;59.17
76156;BME280;64906;51.290;7.348;2023-02-02T15:25:40;99477.25;;;19.25;57.85
76156;BME280;64906;51.290;7.348;2023-02-02T15:33:38;99457.75;;;19.11;57.54
76156;BME280;64906;51.290;7.348;2023-02-02T15:36:13;99464.03;;;19.07;55.88
76156;BME280;64906;51.290;7.348;2023-02-02T15:38:42;99460.19;;;19.03;56.14
76156;BME280;64906;51.290;7.348;2023-02-02T15:41:17;99467.00;;;19.05;56.07
76156;BME280;64906;51.290;7.348;2023-02-02T15:43:49;99457.44;;;19.03;55.43
76156;BME280;64906;51.290;7.348;2023-02-02T15:46:20;99458.56;;;19.07;55.07
76156;BME280;64906;51.290;7.348;2023-02-02T15:49:21;99455.28;;;19.10;55.02
76156;BME280;64906;51.290;7.348;2023-02-02T15:51:55;99464.06;;;19.12;54.67
76156;BME280;64906;51.290;7.348;2023-02-02T15:54:26;99450.13;;;19.13;54.74
76156;BME280;64906;51.290;7.348;2023-02-02T15:56:54;99459.41;;;19.17;54.82
76156;BME280;64906;51.290;7.348;2023-02-02T15:59:27;99454.53;;;19.24;54.29
76156;BME280;64906;51.290;7.348;2023-02-02T16:02:35;99464.69;;;19.29;52.86
76156;BME280;64906;51.290;7.348;2023-02-02T16:05:01;99462.47;;;19.26;51.21
76156;BME280;64906;51.290;7.348;2023-02-02T16:07:30;99468.19;;;19.19;51.59
76156;BME280;64906;51.290;7.348;2023-02-02T16:10:06;99460.53;;;19.16;52.54
76156;BME280;64906;51.290;7.348;2023-02-02T16:12:33;99462.41;;;19.16;53.19
76156;BME280;64906;51.290;7.348;2023-02-02T16:15:00;99468.72;;;19.16;53.48
76156;BME280;64906;51.290;7.348;2023-02-02T16:17:29;99466.56;;;19.18;53.85
76156;BME280;64906;51.290;7.348;2023-02-02T16:20:02;99466.56;;;19.18;54.15
76156;BME280;64906;51.290;7.348;2023-02-02T16:22:34;99465.72;;;19.18;54.08
76156;BME280;64906;51.290;7.348;2023-02-02T16:25:05;99467.09;;;19.20;54.52
76156;BME280;64906;51.290;7.348;2023-02-02T16:27:33;99475.84;;;19.22;54.62
76156;BME280;64906;51.290;7.348;2023-02-02T16:30:05;99470.38;;;19.22;54.85
76156;BME280;64906;51.290;7.348;2023-02-02T16:32:34;99475.84;;;19.22;55.16
76156;BME280;64906;51.290;7.348;2023-02-02T16:35:05;99481.34;;;19.22;55.31
76156;BME280;64906;51.290;7.348;2023-02-02T16:37:34;99485.72;;;19.23;55.27
76156;BME280;64906;51.290;7.348;2023-02-02T16:40:25;99484.63;;;19.19;55.53
76156;BME280;64906;51.290;7.348;2023-02-02T16:43:15;99481.34;;;19.22;56.00
76156;BME280;64906;51.290;7.348;2023-02-02T16:45:50;99483.53;;;19.25;55.90
76156;BME280;64906;51.290;7.348;2023-02-02T16:51:09;99490.91;;;19.20;56.28
76156;BME280;64906;51.290;7.348;2023-02-02T16:54:12;99483.25;;;19.22;56.31
76156;BME280;64906;51.290;7.348;2023-02-02T16:56:51;99476.44;;;19.24;56.30
76156;BME280;64906;51.290;7.348;2023-02-02T16:59:30;99484.91;;;19.23;56.53
76156;BME280;64906;51.290;7.348;2023-02-02T17:02:22;99482.16;;;19.23;56.81
76156;BME280;64906;51.290;7.348;2023-02-02T17:04:55;99480.22;;;19.23;56.98
76156;BME280;64906;51.290;7.348;2023-02-02T17:07:24;99479.44;;;19.23;57.03
76156;BME280;64906;51.290;7.348;2023-02-02T17:12:37;99484.63;;;19.24;56.85
76156;BME280;64906;51.290;7.348;2023-02-02T17:17:46;99488.97;;;19.20;57.19
76156;BME280;64906;51.290;7.348;2023-02-02T17:20:18;99488.19;;;19.20;57.30
76156;BME280;64906;51.290;7.348;2023-02-02T17:23:21;99498.03;;;19.21;57.40
76156;BME280;64906;51.290;7.348;2023-02-02T17:25:48;99500.50;;;19.22;57.54
76156;BME280;64906;51.290;7.348;2023-02-02T17:28:25;99499.66;;;19.22;57.21
76156;BME280;64906;51.290;7.348;2023-02-02T17:31:12;99505.13;;;19.22;57.53
76156;BME280;64906;51.290;7.348;2023-02-02T17:33:40;99498.03;;;19.21;57.78
76156;BME280;64906;51.290;7.348;2023-02-02T17:36:11;99510.34;;;19.18;57.60
76156;BME280;64906;51.290;7.348;2023-02-02T17:38:38;99502.38;;;19.12;57.57
76156;BME280;64906;51.290;7.348;2023-02-02T17:41:04;99491.13;;;19.08;57.61
76156;BME280;64906;51.290;7.348;2023-02-02T17:43:33;99509.75;;;19.11;57.70
76156;BME280;64906;51.290;7.348;2023-02-02T17:46:01;99501.53;;;19.06;57.62
76156;BME280;64906;51.290;7.348;2023-02-02T17:48:28;99504.56;;;19.10;57.82
76156;BME280;64906;51.290;7.348;2023-02-02T17:50:54;99508.06;;;19.05;57.76
76156;BME280;64906;51.290;7.348;2023-02-02T17:53:21;99508.34;;;19.04;58.05
76156;BME280;64906;51.290;7.348;2023-02-02T17:55:48;99515.75;;;19.03;58.10
76156;BME280;64906;51.290;7.348;2023-02-02T17:58:15;99513.00;;;19.03;58.14
76156;BME280;64906;51.290;7.348;2023-02-02T18:00:46;99507.78;;;19.02;58.43
76156;BME280;64906;51.290;7.348;2023-02-02T18:03:16;99497.34;;;18.99;58.61
76156;BME280;64906;51.290;7.348;2023-02-02T18:05:44;99498.47;;;18.98;58.50
76156;BME280;64906;51.290;7.348;2023-02-02T18:08:11;99507.78;;;18.97;58.64
76156;BME280;64906;51.290;7.348;2023-02-02T18:10:38;99497.63;;;18.97;58.73
76156;BME280;64906;51.290;7.348;2023-02-02T18:13:06;99500.34;;;18.92;58.95
76156;BME280;64906;51.290;7.348;2023-02-02T18:15:32;99511.81;;;18.89;58.96
76156;BME280;64906;51.290;7.348;2023-02-02T18:18:00;99509.59;;;18.86;59.04
76156;BME280;64906;51.290;7.348;2023-02-02T18:20:27;99509.03;;;18.84;59.12
76156;BME280;64906;51.290;7.348;2023-02-02T18:22:57;99521.66;;;18.85;59.39
76156;BME280;64906;51.290;7.348;2023-02-02T18:25:25;99526.00;;;18.81;59.31
76156;BME280;64906;51.290;7.348;2023-02-02T18:27:52;99522.16;;;18.77;59.75
76156;BME280;64906;51.290;7.348;2023-02-02T18:30:18;99530.88;;;18.79;59.78
76156;BME280;64906;51.290;7.348;2023-02-02T18:32:44;99526.78;;;18.77;59.81
76156;BME280;64906;51.290;7.348;2023-02-02T18:35:11;99532.53;;;18.75;59.78
76156;BME280;64906;51.290;7.348;2023-02-02T18:37:37;99536.34;;;18.74;59.72
76156;BME280;64906;51.290;7.348;2023-02-02T18:40:05;99540.41;;;18.71;60.05
76156;BME280;64906;51.290;7.348;2023-02-02T18:42:32;99534.13;;;18.71;60.20
76156;BME280;64906;51.290;7.348;2023-02-02T18:44:59;99535.25;;;18.75;59.87
76156;BME280;64906;51.290;7.348;2023-02-02T18:47:26;99536.56;;;18.67;60.05
76156;BME280;64906;51.290;7.348;2023-02-02T18:53:02;99532.44;;;18.65;60.09
76156;BME280;64906;51.290;7.348;2023-02-02T18:55:28;99533.53;;;18.64;60.40
76156;BME280;64906;51.290;7.348;2023-02-02T18:57:54;99532.44;;;18.65;60.25
76156;BME280;64906;51.290;7.348;2023-02-02T19:00:20;99524.25;;;18.65;60.43
76156;BME280;64906;51.290;7.348;2023-02-02T19:02:47;99522.34;;;18.65;60.55
76156;BME280;64906;51.290;7.348;2023-02-02T19:05:13;99531.34;;;18.66;60.56
76156;BME280;64906;51.290;7.348;2023-02-02T19:07:58;99536.81;;;18.66;60.45
76156;BME280;64906;51.290;7.348;2023-02-02T19:10:25;99535.75;;;18.67;60.75
76156;BME280;64906;51.290;7.348;2023-02-02T19:15:37;99533.28;;;18.65;60.67
76156;BME280;64906;51.290;7.348;2023-02-02T19:18:24;99538.44;;;18.62;60.54
76156;BME280;64906;51.290;7.348;2023-02-02T19:20:51;99541.47;;;18.65;60.79
76156;BME280;64906;51.290;7.348;2023-02-02T19:23:20;99541.22;;;18.67;60.55
76156;BME280;64906;51.290;7.348;2023-02-02T19:25:55;99553.50;;;18.64;60.88
76156;BME280;64906;51.290;7.348;2023-02-02T19:28:30;99555.16;;;18.65;60.56
76156;BME280;64906;51.290;7.348;2023-02-02T19:31:01;99552.69;;;18.64;60.62
76156;BME280;64906;51.290;7.348;2023-02-02T19:33:48;99569.91;;;18.64;60.97
76156;BME280;64906;51.290;7.348;2023-02-02T19:36:20;99579.19;;;18.63;60.79
76156;BME280;64906;51.290;7.348;2023-02-02T19:38:51;99578.63;;;18.61;60.36
76156;BME280;64906;51.290;7.348;2023-02-02T19:41:22;99585.47;;;18.59;60.88
76156;BME280;64906;51.290;7.348;2023-02-02T19:44:09;99588.50;;;18.62;60.81
76156;BME280;64906;51.290;7.348;2023-02-02T19:46:41;99577.25;;;18.59;60.75
76156;BME280;64906;51.290;7.348;2023-02-02T19:49:13;99578.06;;;18.59;60.73
76156;BME280;64906;51.290;7.348;2023-02-02T19:54:34;99565.75;;;18.57;61.08
76156;BME280;64906;51.290;7.348;2023-02-02T19:59:42;99555.38;;;18.59;61.00
76156;BME280;64906;51.290;7.348;2023-02-02T20:07:38;99581.06;;;18.58;61.08
76156;BME280;64906;51.290;7.348;2023-02-02T20:10:22;99572.31;;;18.56;61.13
76156;BME280;64906;51.290;7.348;2023-02-02T20:12:50;99574.47;;;18.54;61.32
76156;BME280;64906;51.290;7.348;2023-02-02T20:15:35;99562.19;;;18.56;61.45
76156;BME280;64906;51.290;7.348;2023-02-02T20:18:04;99558.06;;;18.54;61.51
76156;BME280;64906;51.290;7.348;2023-02-02T20:20:38;99569.00;;;18.54;61.39
76156;BME280;64906;51.290;7.348;2023-02-02T20:25:43;99553.41;;;18.54;61.21
76156;BME280;64906;51.290;7.348;2023-02-02T20:28:42;99561.38;;;18.56;61.62
76156;BME280;64906;51.290;7.348;2023-02-02T20:31:16;99563.53;;;18.54;61.47
76156;BME280;64906;51.290;7.348;2023-02-02T20:33:46;99579.38;;;18.52;61.60
76156;BME280;64906;51.290;7.348;2023-02-02T20:42:14;99575.53;;;18.53;61.73
76156;BME280;64906;51.290;7.348;2023-02-02T20:44:41;99581.84;;;18.53;61.78
76156;BME280;64906;51.290;7.348;2023-02-02T20:47:08;99586.75;;;18.51;61.72
76156;BME280;64906;51.290;7.348;2023-02-02T20:49:36;99591.41;;;18.51;61.85
76156;BME280;64906;51.290;7.348;2023-02-02T20:52:05;99588.63;;;18.46;61.88
76156;BME280;64906;51.290;7.348;2023-02-02T20:54:32;99593.31;;;18.50;61.81
76156;BME280;64906;51.290;7.348;2023-02-02T20:56:59;99608.63;;;18.51;61.38
76156;BME280;64906;51.290;7.348;2023-02-02T20:59:27;99614.59;;;18.48;61.90
76156;BME280;64906;51.290;7.348;2023-02-02T21:01:53;99618.19;;;18.49;62.06
76156;BME280;64906;51.290;7.348;2023-02-02T21:04:19;99628.03;;;18.50;61.82
76156;BME280;64906;51.290;7.348;2023-02-02T21:06:45;99611.88;;;18.48;61.70
76156;BME280;64906;51.290;7.348;2023-02-02T21:09:13;99625.53;;;18.48;62.02
76156;BME280;64906;51.290;7.348;2023-02-02T21:11:39;99620.34;;;18.47;61.68
76156;BME280;64906;51.290;7.348;2023-02-02T21:14:07;99629.69;;;18.51;61.73
76156;BME280;64906;51.290;7.348;2023-02-02T21:16:34;99632.38;;;18.46;62.06
76156;BME280;64906;51.290;7.348;2023-02-02T21:19:00;99623.06;;;18.47;61.82
76156;BME280;64906;51.290;7.348;2023-02-02T21:21:26;99622.50;;;18.45;61.82
76156;BME280;64906;51.290;7.348;2023-02-02T21:23:52;99640.06;;;18.49;62.09
76156;BME280;64906;51.290;7.348;2023-02-02T21:26:20;99639.47;;;18.47;61.93
76156;BME280;64906;51.290;7.348;2023-02-02T21:28:47;99634.00;;;18.47;62.09
76156;BME280;64906;51.290;7.348;2023-02-02T21:31:15;99634.00;;;18.47;62.25
76156;BME280;64906;51.290;7.348;2023-02-02T21:33:45;99634.84;;;18.47;62.04
76156;BME280;64906;51.290;7.348;2023-02-02T21:36:37;99636.75;;;18.47;62.20
76156;BME280;64906;51.290;7.348;2023-02-02T21:39:27;99633.19;;;18.46;62.11
76156;BME280;64906;51.290;7.348;2023-02-02T21:44:27;99640.00;;;18.44;62.14
76156;BME280;64906;51.290;7.348;2023-02-02T21:46:55;99638.09;;;18.44;61.95
76156;BME280;64906;51.290;7.348;2023-02-02T21:49:24;99635.63;;;18.43;62.25
76156;BME280;64906;51.290;7.348;2023-02-02T21:51:54;99636.94;;;18.40;62.03
76156;BME280;64906;51.290;7.348;2023-02-02T21:54:26;99638.84;;;18.40;62.36
76156;BME280;64906;51.290;7.348;2023-02-02T21:56:53;99638.84;;;18.40;62.18
76156;BME280;64906;51.290;7.348;2023-02-02T21:59:27;99642.69;;;18.39;62.17
76156;BME280;64906;51.290;7.348;2023-02-02T22:01:56;99640.44;;;18.36;62.11
76156;BME280;64906;51.290;7.348;2023-02-02T22:04:32;99636.59;;;18.37;62.37
76156;BME280;64906;51.290;7.348;2023-02-02T22:07:00;99635.53;;;18.38;62.47
76156;BME280;64906;51.290;7.348;2023-02-02T22:09:39;99634.97;;;18.36;62.38
76156;BME280;64906;51.290;7.348;2023-02-02T22:12:35;99638.78;;;18.35;62.35
76156;BME280;64906;51.290;7.348;2023-02-02T22:15:00;99638.22;;;18.33;62.39
76156;BME280;64906;51.290;7.348;2023-02-02T22:17:39;99629.19;;;18.32;62.56
76156;BME280;64906;51.290;7.348;2023-02-02T22:20:33;99634.66;;;18.32;62.28
76156;BME280;64906;51.290;7.348;2023-02-02T22:23:02;99638.22;;;18.33;62.30
76156;BME280;64906;51.290;7.348;2023-02-02T22:25:33;99630.28;;;18.31;62.55
76156;BME280;64906;51.290;7.348;2023-02-02T22:28:16;99630.28;;;18.31;62.47
76156;BME280;64906;51.290;7.348;2023-02-02T22:30:43;99617.38;;;18.27;62.47
76156;BME280;64906;51.290;7.348;2023-02-02T22:33:10;99620.69;;;18.29;62.48
76156;BME280;64906;51.290;7.348;2023-02-02T22:35:38;99620.41;;;18.30;62.58
76156;BME280;64906;51.290;7.348;2023-02-02T22:38:04;99617.88;;;18.24;62.79
76156;BME280;64906;51.290;7.348;2023-02-02T22:40:31;99620.69;;;18.29;62.56
76156;BME280;64906;51.290;7.348;2023-02-02T22:42:59;99613.56;;;18.28;62.51
76156;BME280;64906;51.290;7.348;2023-02-02T22:45:25;99621.50;;;18.29;62.45
76156;BME280;64906;51.290;7.348;2023-02-02T22:47:52;99619.03;;;18.28;62.50
76156;BME280;64906;51.290;7.348;2023-02-02T22:50:21;99618.47;;;18.26;62.39
76156;BME280;64906;51.290;7.348;2023-02-02T22:52:48;99620.38;;;18.25;62.39
76156;BME280;64906;51.290;7.348;2023-02-02T22:55:14;99611.59;;;18.23;62.69
76156;BME280;64906;51.290;7.348;2023-02-02T22:57:40;99622.84;;;18.27;62.47
76156;BME280;64906;51.290;7.348;2023-02-02T23:02:40;99619.78;;;18.23;62.54
76156;BME280;64906;51.290;7.348;2023-02-02T23:05:09;99613.53;;;18.23;62.43
76156;BME280;64906;51.290;7.348;2023-02-02T23:07:35;99616.25;;;18.23;62.57
76156;BME280;64906;51.290;7.348;2023-02-02T23:10:01;99625.56;;;18.27;62.40
76156;BME280;64906;51.290;7.348;2023-02-02T23:12:28;99626.66;;;18.26;62.61
76156;BME280;64906;51.290;7.348;2023-02-02T23:14:54;99626.09;;;18.24;62.46
76156;BME280;64906;51.290;7.348;2023-02-02T23:17:20;99634.28;;;18.24;62.48
76156;BME280;64906;51.290;7.348;2023-02-02T23:19:46;99625.03;;;18.25;62.43
76156;BME280;64906;51.290;7.348;2023-02-02T23:22:12;99611.03;;;18.21;62.37
76156;BME280;64906;51.290;7.348;2023-02-02T23:24:38;99620.06;;;18.22;62.48
76156;BME280;64906;51.290;7.348;2023-02-02T23:27:04;99618.66;;;18.19;62.87
76156;BME280;64906;51.290;7.348;2023-02-02T23:29:30;99621.13;;;18.21;62.51
76156;BME280;64906;51.290;7.348;2023-02-02T23:31:57;99610.69;;;18.13;62.77
76156;BME280;64906;51.290;7.348;2023-02-02T23:34:22;99617.03;;;18.18;62.83
76156;BME280;64906;51.290;7.348;2023-02-02T23:36:48;99618.66;;;18.19;62.77
76156;BME280;64906;51.290;7.348;2023-02-02T23:39:14;99616.19;;;18.18;62.63
76156;BME280;64906;51.290;7.348;2023-02-02T23:41:40;99612.09;;;18.20;62.62
76156;BME280;64906;51.290;7.348;2023-02-02T23:44:06;99619.50;;;18.20;62.51
76156;BME280;64906;51.290;7.348;2023-02-02T23:46:31;99619.75;;;18.18;62.68
76156;BME280;64906;51.290;7.348;2023-02-02T23:48:58;99618.63;;;18.14;62.72
76156;BME280;64906;51.290;7.348;2023-02-02T23:51:25;99613.41;;;18.13;62.78
76156;BME280;64906;51.290;7.348;2023-02-02T23:53:51;99609.25;;;18.10;62.63
76156;BME280;64906;51.290;7.348;2023-02-02T23:56:20;99614.25;;;18.13;62.79